sensor_id;sensor_type;location;lat;lon;timestamp;pressure;altitude;pressure_sealevel;temperature;humidity
12195;BME280;27023;42.680;23.132;2022-11-04T00:01:38;92273.34;;;9.78;100.00
12195;BME280;27023;42.680;23.132;2022-11-04T00:04:06;92280.34;;;10.02;100.00
12195;BME280;27023;42.680;23.132;2022-11-04T00:09:17;92274.00;;;9.75;100.00
12195;BME280;27023;42.680;23.132;2022-11-04T00:11:44;92279.59;;;9.73;100.00
12195;BME280;27023;42.680;23.132;2022-11-04T00:14:30;92266.09;;;9.75;100.00
12195;BME280;27023;42.680;23.132;2022-11-04T00:16:57;92264.66;;;9.77;100.00
12195;BME280;27023;42.680;23.132;2022-11-04T00:19:43;92264.09;;;9.84;100.00
12195;BME280;27023;42.680;23.132;2022-11-04T00:22:27;92268.16;;;9.81;100.00
12195;BME280;27023;42.680;23.132;2022-11-04T00:25:12;92258.50;;;9.85;100.00
12195;BME280;27023;42.680;23.132;2022-11-04T00:28:04;92258.66;;;9.77;100.00
12195;BME280;27023;42.680;23.132;2022-11-04T00:30:52;92255.25;;;9.76;100.00
12195;BME280;27023;42.680;23.132;2022-11-04T00:33:19;92252.38;;;9.81;100.00
12195;BME280;27023;42.680;23.132;2022-11-04T00:35:54;92252.13;;;9.86;100.00
12195;BME280;27023;42.680;23.132;2022-11-04T00:38:22;92252.22;;;9.90;100.00
12195;BME280;27023;42.680;23.132;2022-11-04T00:40:49;92247.72;;;9.91;100.00
12195;BME280;27023;42.680;23.132;2022-11-04T00:43:15;92237.31;;;9.66;100.00
12195;BME280;27023;42.680;23.132;2022-11-04T00:45:42;92236.97;;;9.68;100.00
12195;BME280;27023;42.680;23.132;2022-11-04T00:48:09;92228.91;;;9.76;100.00
12195;BME280;27023;42.680;23.132;2022-11-04T00:50:36;92229.03;;;9.96;100.00
12195;BME280;27023;42.680;23.132;2022-11-04T00:53:05;92235.53;;;9.70;100.00
12195;BME280;27023;42.680;23.132;2022-11-04T00:55:31;92220.66;;;10.06;100.00
12195;BME280;27023;42.680;23.132;2022-11-04T00:57:58;92227.63;;;9.70;100.00
12195;BME280;27023;42.680;23.132;2022-11-04T01:00:25;92225.28;;;9.81;100.00
12195;BME280;27023;42.680;23.132;2022-11-04T01:02:52;92229.53;;;9.57;100.00
12195;BME280;27023;42.680;23.132;2022-11-04T01:05:18;92229.44;;;9.82;100.00
12195;BME280;27023;42.680;23.132;2022-11-04T01:07:45;92219.78;;;9.86;100.00
12195;BME280;27023;42.680;23.132;2022-11-04T01:10:13;92217.78;;;9.67;100.00
12195;BME280;27023;42.680;23.132;2022-11-04T01:12:40;92210.44;;;9.61;100.00
12195;BME280;27023;42.680;23.132;2022-11-04T01:15:07;92207.47;;;9.62;100.00
12195;BME280;27023;42.680;23.132;2022-11-04T01:17:34;92195.81;;;9.91;100.00
12195;BME280;27023;42.680;23.132;2022-11-04T01:20:00;92209.91;;;9.55;100.00
12195;BME280;27023;42.680;23.132;2022-11-04T01:22:28;92201.81;;;9.48;100.00
12195;BME280;27023;42.680;23.132;2022-11-04T01:24:54;92213.34;;;9.43;100.00
12195;BME280;27023;42.680;23.132;2022-11-04T01:27:22;92210.59;;;9.52;100.00
12195;BME280;27023;42.680;23.132;2022-11-04T01:29:49;92212.09;;;9.53;100.00
12195;BME280;27023;42.680;23.132;2022-11-04T01:32:16;92201.47;;;9.21;100.00
12195;BME280;27023;42.680;23.132;2022-11-04T01:34:42;92202.53;;;9.33;100.00
12195;BME280;27023;42.680;23.132;2022-11-04T01:37:09;92198.63;;;9.27;100.00
12195;BME280;27023;42.680;23.132;2022-11-04T01:39:36;92200.47;;;9.54;100.00
12195;BME280;27023;42.680;23.132;2022-11-04T01:42:02;92194.31;;;9.62;100.00
12195;BME280;27023;42.680;23.132;2022-11-04T01:44:50;92191.81;;;9.53;100.00
12195;BME280;27023;42.680;23.132;2022-11-04T01:47:19;92203.03;;;9.78;100.00
12195;BME280;27023;42.680;23.132;2022-11-04T01:49:50;92202.44;;;9.57;100.00
12195;BME280;27023;42.680;23.132;2022-11-04T01:52:25;92192.88;;;9.37;100.00
12195;BME280;27023;42.680;23.132;2022-11-04T01:54:54;92179.50;;;9.42;100.00
12195;BME280;27023;42.680;23.132;2022-11-04T01:57:27;92184.00;;;9.69;100.00
12195;BME280;27023;42.680;23.132;2022-11-04T02:00:00;92178.59;;;9.66;100.00
12195;BME280;27023;42.680;23.132;2022-11-04T02:02:27;92174.91;;;9.67;100.00
12195;BME280;27023;42.680;23.132;2022-11-04T02:04:54;92179.09;;;9.55;100.00
12195;BME280;27023;42.680;23.132;2022-11-04T02:07:21;92170.34;;;9.51;100.00
12195;BME280;27023;42.680;23.132;2022-11-04T02:09:48;92179.34;;;9.22;100.00
12195;BME280;27023;42.680;23.132;2022-11-04T02:12:15;92171.53;;;9.54;100.00
12195;BME280;27023;42.680;23.132;2022-11-04T02:15:01;92172.69;;;9.41;100.00
12195;BME280;27023;42.680;23.132;2022-11-04T02:17:45;92168.41;;;9.20;100.00
12195;BME280;27023;42.680;23.132;2022-11-04T02:20:28;92160.59;;;9.52;100.00
12195;BME280;27023;42.680;23.132;2022-11-04T02:26:29;92155.38;;;9.40;100.00
12195;BME280;27023;42.680;23.132;2022-11-04T02:29:18;92166.09;;;9.47;100.00
12195;BME280;27023;42.680;23.132;2022-11-04T02:31:55;92151.09;;;9.19;100.00
12195;BME280;27023;42.680;23.132;2022-11-04T02:34:30;92155.00;;;9.26;100.00
12195;BME280;27023;42.680;23.132;2022-11-04T02:37:07;92156.91;;;9.13;100.00
12195;BME280;27023;42.680;23.132;2022-11-04T02:39:45;92155.72;;;9.66;100.00
12195;BME280;27023;42.680;23.132;2022-11-04T02:42:21;92153.00;;;9.07;100.00
12195;BME280;27023;42.680;23.132;2022-11-04T02:44:58;92152.31;;;9.38;100.00
12195;BME280;27023;42.680;23.132;2022-11-04T02:47:29;92156.34;;;9.19;100.00
12195;BME280;27023;42.680;23.132;2022-11-04T02:49:58;92153.09;;;9.38;100.00
12195;BME280;27023;42.680;23.132;2022-11-04T02:52:34;92155.66;;;9.50;100.00
12195;BME280;27023;42.680;23.132;2022-11-04T02:55:09;92154.44;;;9.32;100.00
12195;BME280;27023;42.680;23.132;2022-11-04T02:57:38;92153.47;;;9.52;100.00
12195;BME280;27023;42.680;23.132;2022-11-04T03:00:11;92155.81;;;9.85;100.00
12195;BME280;27023;42.680;23.132;2022-11-04T03:02:41;92152.94;;;9.47;100.00
12195;BME280;27023;42.680;23.132;2022-11-04T03:05:11;92155.00;;;9.53;100.00
12195;BME280;27023;42.680;23.132;2022-11-04T03:07:41;92155.41;;;9.83;100.00
12195;BME280;27023;42.680;23.132;2022-11-04T03:10:12;92150.19;;;9.28;100.00
12195;BME280;27023;42.680;23.132;2022-11-04T03:12:45;92146.09;;;9.58;100.00
12195;BME280;27023;42.680;23.132;2022-11-04T03:15:18;92147.94;;;9.14;100.00
12195;BME280;27023;42.680;23.132;2022-11-04T03:17:49;92147.34;;;9.20;100.00
12195;BME280;27023;42.680;23.132;2022-11-04T03:20:22;92152.13;;;9.31;100.00
12195;BME280;27023;42.680;23.132;2022-11-04T03:22:50;92154.34;;;9.29;100.00
12195;BME280;27023;42.680;23.132;2022-11-04T03:25:22;92148.97;;;8.97;100.00
12195;BME280;27023;42.680;23.132;2022-11-04T03:27:58;92151.03;;;9.04;100.00
12195;BME280;27023;42.680;23.132;2022-11-04T03:30:32;92147.53;;;9.00;100.00
12195;BME280;27023;42.680;23.132;2022-11-04T03:33:04;92157.31;;;8.75;100.00
12195;BME280;27023;42.680;23.132;2022-11-04T03:35:33;92155.38;;;8.72;100.00
12195;BME280;27023;42.680;23.132;2022-11-04T03:37:59;92148.03;;;8.65;100.00
12195;BME280;27023;42.680;23.132;2022-11-04T03:40:27;92146.59;;;8.80;100.00
12195;BME280;27023;42.680;23.132;2022-11-04T03:42:56;92149.03;;;8.60;100.00
12195;BME280;27023;42.680;23.132;2022-11-04T03:45:25;92145.53;;;8.56;100.00
12195;BME280;27023;42.680;23.132;2022-11-04T03:47:55;92141.81;;;8.57;100.00
12195;BME280;27023;42.680;23.132;2022-11-04T03:50:26;92147.28;;;8.52;100.00
12195;BME280;27023;42.680;23.132;2022-11-04T03:52:54;92143.38;;;8.46;100.00
12195;BME280;27023;42.680;23.132;2022-11-04T03:55:22;92134.06;;;8.37;100.00
12195;BME280;27023;42.680;23.132;2022-11-04T03:57:56;92137.56;;;8.41;100.00
12195;BME280;27023;42.680;23.132;2022-11-04T04:00:33;92138.13;;;8.34;100.00
12195;BME280;27023;42.680;23.132;2022-11-04T04:03:09;92138.75;;;8.43;100.00
12195;BME280;27023;42.680;23.132;2022-11-04T04:05:42;92131.50;;;8.16;100.00
12195;BME280;27023;42.680;23.132;2022-11-04T04:08:17;92138.06;;;8.10;100.00
12195;BME280;27023;42.680;23.132;2022-11-04T04:10:51;92130.13;;;8.18;100.00
12195;BME280;27023;42.680;23.132;2022-11-04T04:13:30;92131.75;;;8.23;100.00
12195;BME280;27023;42.680;23.132;2022-11-04T04:16:02;92122.78;;;8.24;100.00
12195;BME280;27023;42.680;23.132;2022-11-04T04:18:37;92121.47;;;8.30;100.00
12195;BME280;27023;42.680;23.132;2022-11-04T04:21:08;92115.13;;;8.43;100.00
12195;BME280;27023;42.680;23.132;2022-11-04T04:23:39;92127.38;;;8.51;100.00
12195;BME280;27023;42.680;23.132;2022-11-04T04:26:25;92124.75;;;8.91;100.00
12195;BME280;27023;42.680;23.132;2022-11-04T04:29:11;92121.91;;;8.44;100.00
12195;BME280;27023;42.680;23.132;2022-11-04T04:31:39;92124.94;;;8.71;100.00
12195;BME280;27023;42.680;23.132;2022-11-04T04:34:18;92123.91;;;8.35;100.00
12195;BME280;27023;42.680;23.132;2022-11-04T04:36:48;92121.25;;;8.47;100.00
12195;BME280;27023;42.680;23.132;2022-11-04T04:39:18;92119.38;;;8.60;100.00
12195;BME280;27023;42.680;23.132;2022-11-04T04:42:05;92125.50;;;8.52;100.00
12195;BME280;27023;42.680;23.132;2022-11-04T04:44:50;92130.13;;;8.43;100.00
12195;BME280;27023;42.680;23.132;2022-11-04T04:47:34;92129.56;;;8.25;100.00
12195;BME280;27023;42.680;23.132;2022-11-04T04:50:04;92125.88;;;8.38;100.00
12195;BME280;27023;42.680;23.132;2022-11-04T04:52:33;92131.09;;;8.26;100.00
12195;BME280;27023;42.680;23.132;2022-11-04T04:55:02;92121.44;;;8.06;100.00
12195;BME280;27023;42.680;23.132;2022-11-04T04:57:29;92127.28;;;8.23;100.00
12195;BME280;27023;42.680;23.132;2022-11-04T04:59:55;92127.47;;;8.06;100.00
12195;BME280;27023;42.680;23.132;2022-11-04T05:02:22;92125.59;;;8.07;100.00
12195;BME280;27023;42.680;23.132;2022-11-04T05:04:49;92131.72;;;7.86;100.00
12195;BME280;27023;42.680;23.132;2022-11-04T05:07:17;92130.53;;;7.96;100.00
12195;BME280;27023;42.680;23.132;2022-11-04T05:09:43;92130.53;;;7.84;100.00
12195;BME280;27023;42.680;23.132;2022-11-04T05:12:10;92132.47;;;7.75;100.00
12195;BME280;27023;42.680;23.132;2022-11-04T05:14:37;92127.25;;;7.87;100.00
12195;BME280;27023;42.680;23.132;2022-11-04T05:17:03;92130.41;;;7.80;100.00
12195;BME280;27023;42.680;23.132;2022-11-04T05:19:30;92137.41;;;7.88;100.00
12195;BME280;27023;42.680;23.132;2022-11-04T05:21:57;92129.53;;;7.76;100.00
12195;BME280;27023;42.680;23.132;2022-11-04T05:24:25;92136.88;;;7.95;100.00
12195;BME280;27023;42.680;23.132;2022-11-04T05:26:52;92135.88;;;8.00;100.00
12195;BME280;27023;42.680;23.132;2022-11-04T05:29:18;92148.34;;;8.03;100.00
12195;BME280;27023;42.680;23.132;2022-11-04T05:31:45;92152.94;;;7.93;100.00
12195;BME280;27023;42.680;23.132;2022-11-04T05:34:12;92153.16;;;7.88;100.00
12195;BME280;27023;42.680;23.132;2022-11-04T05:36:39;92150.44;;;7.97;100.00
12195;BME280;27023;42.680;23.132;2022-11-04T05:39:09;92153.38;;;7.95;100.00
12195;BME280;27023;42.680;23.132;2022-11-04T05:41:37;92148.69;;;8.13;100.00
12195;BME280;27023;42.680;23.132;2022-11-04T05:44:04;92152.75;;;8.23;100.00
12195;BME280;27023;42.680;23.132;2022-11-04T05:46:33;92155.47;;;8.14;100.00
12195;BME280;27023;42.680;23.132;2022-11-04T05:49:00;92154.03;;;8.17;100.00
12195;BME280;27023;42.680;23.132;2022-11-04T05:51:27;92160.84;;;8.18;100.00
12195;BME280;27023;42.680;23.132;2022-11-04T05:53:54;92161.06;;;8.25;100.00
12195;BME280;27023;42.680;23.132;2022-11-04T05:56:21;92163.03;;;8.28;100.00
12195;BME280;27023;42.680;23.132;2022-11-04T05:58:49;92159.66;;;8.27;100.00
12195;BME280;27023;42.680;23.132;2022-11-04T06:01:25;92154.97;;;8.45;100.00
12195;BME280;27023;42.680;23.132;2022-11-04T06:03:52;92161.97;;;8.41;100.00
12195;BME280;27023;42.680;23.132;2022-11-04T06:06:20;92165.03;;;8.55;100.00
12195;BME280;27023;42.680;23.132;2022-11-04T06:08:47;92157.69;;;8.61;100.00
12195;BME280;27023;42.680;23.132;2022-11-04T06:11:14;92163.91;;;8.69;100.00
12195;BME280;27023;42.680;23.132;2022-11-04T06:13:41;92164.75;;;8.97;100.00
12195;BME280;27023;42.680;23.132;2022-11-04T06:16:09;92163.22;;;9.24;100.00
12195;BME280;27023;42.680;23.132;2022-11-04T06:18:36;92161.84;;;9.14;100.00
12195;BME280;27023;42.680;23.132;2022-11-04T06:21:20;92168.00;;;9.34;100.00
12195;BME280;27023;42.680;23.132;2022-11-04T06:23:49;92162.81;;;9.66;100.00
12195;BME280;27023;42.680;23.132;2022-11-04T06:26:16;92173.41;;;9.53;100.00
12195;BME280;27023;42.680;23.132;2022-11-04T06:28:43;92175.97;;;9.66;100.00
12195;BME280;27023;42.680;23.132;2022-11-04T06:31:12;92167.94;;;9.74;100.00
12195;BME280;27023;42.680;23.132;2022-11-04T06:33:40;92168.47;;;9.80;100.00
12195;BME280;27023;42.680;23.132;2022-11-04T06:36:10;92172.22;;;9.51;100.00
12195;BME280;27023;42.680;23.132;2022-11-04T06:38:52;92171.34;;;9.75;100.00
12195;BME280;27023;42.680;23.132;2022-11-04T06:41:19;92172.97;;;9.51;100.00
12195;BME280;27023;42.680;23.132;2022-11-04T06:43:45;92167.53;;;9.72;100.00
12195;BME280;27023;42.680;23.132;2022-11-04T06:46:27;92174.34;;;10.05;100.00
12195;BME280;27023;42.680;23.132;2022-11-04T06:48:56;92163.72;;;10.01;100.00
12195;BME280;27023;42.680;23.132;2022-11-04T06:51:23;92170.53;;;10.02;100.00
12195;BME280;27023;42.680;23.132;2022-11-04T06:53:50;92176.91;;;10.17;100.00
12195;BME280;27023;42.680;23.132;2022-11-04T06:56:17;92177.09;;;10.24;100.00
12195;BME280;27023;42.680;23.132;2022-11-04T06:58:46;92166.22;;;10.41;100.00
12195;BME280;27023;42.680;23.132;2022-11-04T07:01:13;92170.63;;;10.53;100.00
12195;BME280;27023;42.680;23.132;2022-11-04T07:03:42;92173.50;;;10.64;100.00
12195;BME280;27023;42.680;23.132;2022-11-04T07:06:09;92169.75;;;10.65;100.00
12195;BME280;27023;42.680;23.132;2022-11-04T07:08:36;92168.53;;;10.78;100.00
12195;BME280;27023;42.680;23.132;2022-11-04T07:11:03;92164.94;;;10.86;100.00
12195;BME280;27023;42.680;23.132;2022-11-04T07:13:29;92157.44;;;10.69;100.00
12195;BME280;27023;42.680;23.132;2022-11-04T07:15:56;92156.81;;;10.75;100.00
12195;BME280;27023;42.680;23.132;2022-11-04T07:18:24;92154.13;;;10.91;100.00
12195;BME280;27023;42.680;23.132;2022-11-04T07:20:52;92157.34;;;11.00;100.00
12195;BME280;27023;42.680;23.132;2022-11-04T07:23:18;92152.97;;;11.08;100.00
12195;BME280;27023;42.680;23.132;2022-11-04T07:25:46;92165.03;;;11.09;100.00
12195;BME280;27023;42.680;23.132;2022-11-04T07:28:13;92149.69;;;10.95;100.00
12195;BME280;27023;42.680;23.132;2022-11-04T07:30:39;92151.19;;;10.77;100.00
12195;BME280;27023;42.680;23.132;2022-11-04T07:33:07;92162.03;;;10.56;100.00
12195;BME280;27023;42.680;23.132;2022-11-04T07:35:35;92146.91;;;10.53;100.00
12195;BME280;27023;42.680;23.132;2022-11-04T07:38:03;92140.38;;;10.82;100.00
12195;BME280;27023;42.680;23.132;2022-11-04T07:40:30;92146.50;;;11.05;100.00
12195;BME280;27023;42.680;23.132;2022-11-04T07:42:58;92145.72;;;11.21;100.00
12195;BME280;27023;42.680;23.132;2022-11-04T07:45:25;92142.88;;;11.29;100.00
12195;BME280;27023;42.680;23.132;2022-11-04T07:47:52;92136.69;;;11.41;100.00
12195;BME280;27023;42.680;23.132;2022-11-04T07:50:19;92141.88;;;11.37;100.00
12195;BME280;27023;42.680;23.132;2022-11-04T07:52:45;92137.91;;;11.47;100.00
12195;BME280;27023;42.680;23.132;2022-11-04T07:55:13;92129.50;;;11.61;100.00
12195;BME280;27023;42.680;23.132;2022-11-04T07:57:42;92137.53;;;11.68;100.00
12195;BME280;27023;42.680;23.132;2022-11-04T08:00:11;92138.47;;;11.56;100.00
12195;BME280;27023;42.680;23.132;2022-11-04T08:02:39;92145.53;;;10.94;100.00
12195;BME280;27023;42.680;23.132;2022-11-04T08:05:07;92128.06;;;11.25;100.00
12195;BME280;27023;42.680;23.132;2022-11-04T08:07:34;92133.13;;;11.53;100.00
12195;BME280;27023;42.680;23.132;2022-11-04T08:10:00;92130.81;;;11.12;100.00
12195;BME280;27023;42.680;23.132;2022-11-04T08:12:29;92133.81;;;11.50;100.00
12195;BME280;27023;42.680;23.132;2022-11-04T08:14:56;92121.16;;;11.59;100.00
12195;BME280;27023;42.680;23.132;2022-11-04T08:17:23;92123.94;;;11.08;100.00
12195;BME280;27023;42.680;23.132;2022-11-04T08:19:50;92114.88;;;11.44;100.00
12195;BME280;27023;42.680;23.132;2022-11-04T08:22:17;92112.69;;;11.50;100.00
12195;BME280;27023;42.680;23.132;2022-11-04T08:24:44;92104.19;;;11.79;100.00
12195;BME280;27023;42.680;23.132;2022-11-04T08:27:11;92111.78;;;11.61;100.00
12195;BME280;27023;42.680;23.132;2022-11-04T08:29:39;92107.63;;;11.60;100.00
12195;BME280;27023;42.680;23.132;2022-11-04T08:32:06;92101.91;;;11.77;100.00
12195;BME280;27023;42.680;23.132;2022-11-04T08:34:33;92105.75;;;12.03;100.00
12195;BME280;27023;42.680;23.132;2022-11-04T08:37:00;92109.59;;;12.09;100.00
12195;BME280;27023;42.680;23.132;2022-11-04T08:39:27;92103.44;;;12.24;100.00
12195;BME280;27023;42.680;23.132;2022-11-04T08:41:54;92100.59;;;12.36;100.00
12195;BME280;27023;42.680;23.132;2022-11-04T08:44:20;92106.97;;;12.62;100.00
12195;BME280;27023;42.680;23.132;2022-11-04T08:46:49;92103.84;;;12.79;100.00
12195;BME280;27023;42.680;23.132;2022-11-04T08:49:16;92111.09;;;12.59;100.00
12195;BME280;27023;42.680;23.132;2022-11-04T08:51:44;92109.72;;;12.43;100.00
12195;BME280;27023;42.680;23.132;2022-11-04T08:54:14;92104.53;;;13.02;100.00
12195;BME280;27023;42.680;23.132;2022-11-04T08:56:41;92093.44;;;12.93;100.00
12195;BME280;27023;42.680;23.132;2022-11-04T08:59:09;92099.84;;;13.52;100.00
12195;BME280;27023;42.680;23.132;2022-11-04T09:01:36;92093.03;;;13.92;100.00
12195;BME280;27023;42.680;23.132;2022-11-04T09:04:04;92086.19;;;14.35;98.84
12195;BME280;27023;42.680;23.132;2022-11-04T09:06:35;92084.78;;;14.45;96.11
12195;BME280;27023;42.680;23.132;2022-11-04T09:09:02;92087.19;;;14.68;94.29
12195;BME280;27023;42.680;23.132;2022-11-04T09:11:30;92086.38;;;14.56;94.24
12195;BME280;27023;42.680;23.132;2022-11-04T09:13:58;92083.47;;;14.24;96.82
12195;BME280;27023;42.680;23.132;2022-11-04T09:16:45;92080.41;;;14.22;95.97
12195;BME280;27023;42.680;23.132;2022-11-04T09:19:20;92075.34;;;14.51;94.06
12195;BME280;27023;42.680;23.132;2022-11-04T09:21:51;92069.69;;;14.56;93.92
12195;BME280;27023;42.680;23.132;2022-11-04T09:24:25;92076.16;;;14.62;93.16
12195;BME280;27023;42.680;23.132;2022-11-04T09:27:29;92064.88;;;14.76;93.16
12195;BME280;27023;42.680;23.132;2022-11-04T09:29:55;92070.13;;;14.69;93.79
12195;BME280;27023;42.680;23.132;2022-11-04T09:32:22;92061.38;;;14.57;94.67
12195;BME280;27023;42.680;23.132;2022-11-04T09:34:50;92059.69;;;14.35;95.46
12195;BME280;27023;42.680;23.132;2022-11-04T09:37:17;92059.84;;;14.60;93.99
12195;BME280;27023;42.680;23.132;2022-11-04T09:39:43;92057.66;;;14.76;93.23
12195;BME280;27023;42.680;23.132;2022-11-04T09:45:03;92035.66;;;14.72;92.95
12195;BME280;27023;42.680;23.132;2022-11-04T09:47:32;92026.59;;;14.77;94.48
12195;BME280;27023;42.680;23.132;2022-11-04T09:50:02;92028.34;;;15.42;91.11
12195;BME280;27023;42.680;23.132;2022-11-04T09:52:33;92028.47;;;15.81;88.72
12195;BME280;27023;42.680;23.132;2022-11-04T09:55:04;92029.22;;;15.78;87.65
12195;BME280;27023;42.680;23.132;2022-11-04T09:57:32;92028.03;;;15.57;86.83
12195;BME280;27023;42.680;23.132;2022-11-04T09:59:59;92020.06;;;15.57;88.96
12195;BME280;27023;42.680;23.132;2022-11-04T10:02:39;92020.88;;;15.76;86.73
12195;BME280;27023;42.680;23.132;2022-11-04T10:05:20;92018.13;;;15.54;88.11
12195;BME280;27023;42.680;23.132;2022-11-04T10:08:42;92015.53;;;15.62;86.68
12195;BME280;27023;42.680;23.132;2022-11-04T10:11:19;92010.91;;;15.51;87.11
12195;BME280;27023;42.680;23.132;2022-11-04T10:13:56;92005.69;;;15.73;87.21
12195;BME280;27023;42.680;23.132;2022-11-04T10:16:39;91995.81;;;16.02;84.60
12195;BME280;27023;42.680;23.132;2022-11-04T10:19:21;91993.53;;;16.07;83.19
12195;BME280;27023;42.680;23.132;2022-11-04T10:22:00;91983.66;;;16.08;82.96
12195;BME280;27023;42.680;23.132;2022-11-04T10:24:36;91985.94;;;15.81;82.97
12195;BME280;27023;42.680;23.132;2022-11-04T10:27:12;91972.66;;;15.70;85.82
12195;BME280;27023;42.680;23.132;2022-11-04T10:29:43;91961.28;;;15.77;84.59
12195;BME280;27023;42.680;23.132;2022-11-04T10:32:15;91954.75;;;16.20;81.75
12195;BME280;27023;42.680;23.132;2022-11-04T10:34:45;91959.34;;;16.06;81.36
12195;BME280;27023;42.680;23.132;2022-11-04T10:37:15;91956.66;;;16.20;80.46
12195;BME280;27023;42.680;23.132;2022-11-04T10:39:44;91951.75;;;16.15;80.94
12195;BME280;27023;42.680;23.132;2022-11-04T10:42:12;91949.38;;;16.56;78.98
12195;BME280;27023;42.680;23.132;2022-11-04T10:44:39;91934.09;;;16.81;76.51
12195;BME280;27023;42.680;23.132;2022-11-04T10:47:15;91930.22;;;16.97;75.68
12195;BME280;27023;42.680;23.132;2022-11-04T10:49:53;91932.81;;;17.07;74.96
12195;BME280;27023;42.680;23.132;2022-11-04T10:52:24;91920.69;;;17.03;75.43
12195;BME280;27023;42.680;23.132;2022-11-04T10:54:50;91928.66;;;17.10;75.15
12195;BME280;27023;42.680;23.132;2022-11-04T10:57:20;91926.19;;;17.40;72.52
12195;BME280;27023;42.680;23.132;2022-11-04T10:59:53;91915.56;;;17.33;73.35
12195;BME280;27023;42.680;23.132;2022-11-04T11:02:43;91905.22;;;17.42;71.76
12195;BME280;27023;42.680;23.132;2022-11-04T11:05:20;91904.00;;;17.54;70.28
12195;BME280;27023;42.680;23.132;2022-11-04T11:07:51;91912.31;;;17.60;69.98
12195;BME280;27023;42.680;23.132;2022-11-04T11:10:20;91898.59;;;17.65;69.50
12195;BME280;27023;42.680;23.132;2022-11-04T11:12:53;91903.78;;;17.86;69.76
12195;BME280;27023;42.680;23.132;2022-11-04T11:15:29;91879.88;;;18.17;67.27
12195;BME280;27023;42.680;23.132;2022-11-04T11:18:11;91881.38;;;18.18;66.94
12195;BME280;27023;42.680;23.132;2022-11-04T11:20:39;91876.34;;;17.89;67.96
12195;BME280;27023;42.680;23.132;2022-11-04T11:23:32;91869.50;;;17.88;67.29
12195;BME280;27023;42.680;23.132;2022-11-04T11:26:00;91857.19;;;17.53;69.54
12195;BME280;27023;42.680;23.132;2022-11-04T11:28:29;91822.22;;;17.47;69.70
12195;BME280;27023;42.680;23.132;2022-11-04T11:31:05;91845.91;;;17.35;71.27
12195;BME280;27023;42.680;23.132;2022-11-04T11:33:40;91846.22;;;17.44;70.59
12195;BME280;27023;42.680;23.132;2022-11-04T11:36:16;91843.78;;;17.67;67.62
12195;BME280;27023;42.680;23.132;2022-11-04T11:39:03;91839.69;;;17.52;70.05
12195;BME280;27023;42.680;23.132;2022-11-04T11:41:32;91841.94;;;17.02;71.81
12195;BME280;27023;42.680;23.132;2022-11-04T11:44:04;91838.69;;;17.35;69.30
12195;BME280;27023;42.680;23.132;2022-11-04T11:46:34;91841.00;;;17.33;69.42
12195;BME280;27023;42.680;23.132;2022-11-04T11:49:04;91846.97;;;17.44;68.11
12195;BME280;27023;42.680;23.132;2022-11-04T11:51:33;91836.31;;;17.44;67.40
12195;BME280;27023;42.680;23.132;2022-11-04T11:54:13;91846.09;;;17.06;70.31
12195;BME280;27023;42.680;23.132;2022-11-04T11:56:41;91829.78;;;17.01;71.84
12195;BME280;27023;42.680;23.132;2022-11-04T11:59:16;91835.19;;;16.90;73.31
12195;BME280;27023;42.680;23.132;2022-11-04T12:01:47;91833.59;;;17.00;71.93
12195;BME280;27023;42.680;23.132;2022-11-04T12:04:16;91827.94;;;16.94;74.80
12195;BME280;27023;42.680;23.132;2022-11-04T12:06:52;91824.75;;;17.17;72.61
12195;BME280;27023;42.680;23.132;2022-11-04T12:09:32;91826.50;;;16.82;72.14
12195;BME280;27023;42.680;23.132;2022-11-04T12:12:15;91822.06;;;17.21;68.11
12195;BME280;27023;42.680;23.132;2022-11-04T12:14:53;91824.22;;;17.36;68.09
12195;BME280;27023;42.680;23.132;2022-11-04T12:17:30;91826.38;;;17.52;67.63
12195;BME280;27023;42.680;23.132;2022-11-04T12:20:17;91825.84;;;17.23;73.29
12195;BME280;27023;42.680;23.132;2022-11-04T12:22:54;91821.75;;;17.56;67.68
12195;BME280;27023;42.680;23.132;2022-11-04T12:25:30;91813.34;;;17.61;68.63
12195;BME280;27023;42.680;23.132;2022-11-04T12:28:09;91814.38;;;17.74;65.86
12195;BME280;27023;42.680;23.132;2022-11-04T12:30:49;91816.22;;;17.81;66.93
12195;BME280;27023;42.680;23.132;2022-11-04T12:33:30;91812.69;;;17.50;67.27
12195;BME280;27023;42.680;23.132;2022-11-04T12:36:15;91809.13;;;17.67;66.77
12195;BME280;27023;42.680;23.132;2022-11-04T12:39:00;91810.16;;;18.15;65.11
12195;BME280;27023;42.680;23.132;2022-11-04T12:41:41;91803.94;;;18.25;66.06
12195;BME280;27023;42.680;23.132;2022-11-04T12:44:20;91788.63;;;18.32;66.09
12195;BME280;27023;42.680;23.132;2022-11-04T12:46:54;91805.03;;;18.31;63.50
12195;BME280;27023;42.680;23.132;2022-11-04T12:49:34;91792.44;;;18.31;63.95
12195;BME280;27023;42.680;23.132;2022-11-04T12:52:09;91790.19;;;17.96;66.00
12195;BME280;27023;42.680;23.132;2022-11-04T12:54:46;91795.38;;;18.10;66.37
12195;BME280;27023;42.680;23.132;2022-11-04T12:57:26;91785.44;;;18.10;63.78
12195;BME280;27023;42.680;23.132;2022-11-04T13:00:03;91796.91;;;18.07;64.44
12195;BME280;27023;42.680;23.132;2022-11-04T13:02:34;91790.69;;;18.18;62.49
12195;BME280;27023;42.680;23.132;2022-11-04T13:05:08;91797.91;;;18.21;62.17
12195;BME280;27023;42.680;23.132;2022-11-04T13:07:46;91793.50;;;18.07;62.77
12195;BME280;27023;42.680;23.132;2022-11-04T13:10:18;91798.22;;;17.92;63.72
12195;BME280;27023;42.680;23.132;2022-11-04T13:12:49;91799.06;;;17.82;65.81
12195;BME280;27023;42.680;23.132;2022-11-04T13:15:21;91805.47;;;17.47;67.31
12195;BME280;27023;42.680;23.132;2022-11-04T13:17:50;91801.03;;;17.33;69.56
12195;BME280;27023;42.680;23.132;2022-11-04T13:20:25;91804.84;;;17.32;67.84